Time;durP1;ratioP1;P1;durP2;ratioP2;P2;SDS_P1;SDS_P2;PMS_P1;PMS_P2;Temp;Humidity;BMP_temperature;BMP_pressure;BME280_temperature;BME280_humidity;BME280_pressure;Samples;Min_cycle;Max_cycle;Signal;HPM_P1;HPM_P2
2022/12/23 00:01:13;;;;;;;23.80;12.57;;;;;;;4.43;100.00;100309.63;4969027;28;20222;-74
2022/12/23 00:03:38;;;;;;;19.37;11.40;;;;;;;4.46;100.00;100299.63;4966178;28;20557;-72
2022/12/23 00:06:09;;;;;;;20.50;11.83;;;;;;;4.47;100.00;100302.19;4962455;28;20227;-74
2022/12/23 00:08:35;;;;;;;22.23;13.03;;;;;;;4.50;100.00;100288.75;4962651;28;20220;-73
2022/12/23 00:11:04;;;;;;;19.47;11.93;;;;;;;4.52;100.00;100290.53;4965266;28;20315;-74
2022/12/23 00:16:14;;;;;;;25.77;14.27;;;;;;;4.61;100.00;100290.00;4959933;28;20603;-73
2022/12/23 00:18:41;;;;;;;21.70;13.00;;;;;;;4.60;100.00;100293.34;4962287;28;20213;-74
2022/12/23 00:21:09;;;;;;;22.27;12.43;;;;;;;4.58;100.00;100284.81;4962460;28;20682;-74
2022/12/23 00:23:38;;;;;;;22.23;12.10;;;;;;;4.60;100.00;100286.59;4967427;28;20200;-72
2022/12/23 00:26:04;;;;;;;26.17;13.97;;;;;;;4.64;100.00;100285.88;4964173;28;20205;-73
2022/12/23 00:28:30;;;;;;;23.23;12.50;;;;;;;4.65;100.00;100286.75;4964603;28;20724;-73
2022/12/23 00:31:01;;;;;;;21.83;12.43;;;;;;;4.62;100.00;100279.03;4956782;28;20223;-73
2022/12/23 00:33:32;;;;;;;21.17;11.97;;;;;;;4.66;100.00;100275.78;4963309;28;20199;-73
2022/12/23 00:35:58;;;;;;;25.90;13.00;;;;;;;4.68;100.00;100277.56;4961764;28;20208;-73
2022/12/23 00:43:59;;;;;;;23.70;12.10;;;;;;;4.69;100.00;100280.97;4962250;28;20566;-73
2022/12/23 00:46:25;;;;;;;26.57;13.00;;;;;;;4.69;100.00;100283.50;4945124;28;20185;-73
2022/12/23 00:51:34;;;;;;;21.87;13.20;;;;;;;4.74;100.00;100282.00;4960332;28;20232;-73
2022/12/23 00:54:00;;;;;;;25.40;14.30;;;;;;;4.76;100.00;100286.31;4958715;28;20570;-74
2022/12/23 00:56:26;;;;;;;27.93;13.93;;;;;;;4.75;100.00;100278.63;4956403;28;20229;-73
2022/12/23 00:58:51;;;;;;;23.73;13.30;;;;;;;4.78;100.00;100287.19;4964660;28;20310;-74
2022/12/23 01:06:44;;;;;;;24.60;14.13;;;;;;;4.83;100.00;100280.59;4962392;28;20729;-74
2022/12/23 01:09:10;;;;;;;28.90;14.43;;;;;;;4.86;100.00;100282.38;4962217;28;20307;-73
2022/12/23 01:11:35;;;;;;;27.60;14.90;;;;;;;4.86;100.00;100278.19;4967182;28;20869;-74
2022/12/23 01:14:01;;;;;;;26.27;15.30;;;;;;;4.89;100.00;100277.41;4964851;28;20662;-74
2022/12/23 01:16:26;;;;;;;25.70;15.20;;;;;;;4.90;100.00;100279.13;4962172;28;20254;-74
2022/12/23 01:18:51;;;;;;;30.10;15.67;;;;;;;4.89;100.00;100283.34;4964916;28;20212;-74
2022/12/23 01:21:17;;;;;;;30.63;16.30;;;;;;;4.90;100.00;100280.00;4965669;28;20243;-73
2022/12/23 01:23:42;;;;;;;34.07;17.77;;;;;;;4.94;100.00;100278.41;4962170;28;20208;-74
2022/12/23 01:26:08;;;;;;;31.47;16.17;;;;;;;4.95;100.00;100275.94;4962420;28;20196;-74
2022/12/23 01:28:34;;;;;;;29.53;16.47;;;;;;;4.96;100.00;100271.72;4938874;28;20216;-73
2022/12/23 01:31:01;;;;;;;30.70;15.63;;;;;;;5.00;100.00;100283.69;4946013;28;20623;-73
2022/12/23 01:33:27;;;;;;;31.53;17.53;;;;;;;5.01;100.00;100282.88;4959293;28;20282;-73
2022/12/23 01:36:04;;;;;;;28.23;16.47;;;;;;;5.02;100.00;100282.06;4960813;28;20872;-72
2022/12/23 01:38:29;;;;;;;30.10;17.03;;;;;;;5.04;100.00;100285.50;4964809;28;20224;-74
2022/12/23 01:40:55;;;;;;;33.63;17.70;;;;;;;5.05;100.00;100284.69;4959160;28;20291;-74
2022/12/23 01:43:21;;;;;;;34.87;17.80;;;;;;;5.07;100.00;100285.63;4965933;28;20197;-74
2022/12/23 01:45:47;;;;;;;31.43;17.53;;;;;;;5.09;100.00;100286.50;4961472;28;20297;-73
2022/12/23 01:48:21;;;;;;;28.63;16.93;;;;;;;5.11;100.00;100288.28;4962402;28;20237;-74
2022/12/23 01:50:53;;;;;;;33.80;17.63;;;;;;;5.10;100.00;100286.56;4961151;28;20694;-74
2022/12/23 01:53:27;;;;;;;35.47;18.13;;;;;;;5.11;100.00;100284.91;4961677;28;20205;-73
2022/12/23 01:55:58;;;;;;;33.67;16.70;;;;;;;5.09;100.00;100286.50;4963759;28;20204;-74
2022/12/23 01:58:29;;;;;;;37.67;18.57;;;;;;;5.12;100.00;100277.34;4965498;28;20224;-74
2022/12/23 02:03:41;;;;;;;27.47;15.97;;;;;;;5.14;100.00;100275.69;4965866;28;20278;-74
2022/12/23 02:11:46;;;;;;;32.57;17.13;;;;;;;5.17;100.00;100282.53;4965471;28;20322;-73
2022/12/23 02:17:25;;;;;;;30.93;16.17;;;;;;;5.19;100.00;100279.25;4968218;28;20242;-74
2022/12/23 02:19:50;;;;;;;30.77;15.80;;;;;;;5.20;100.00;100280.97;4958570;28;20196;-74
2022/12/23 02:22:38;;;;;;;32.23;15.73;;;;;;;5.22;100.00;100288.63;4966328;28;20281;-73
2022/12/23 02:25:25;;;;;;;36.87;17.70;;;;;;;5.21;100.00;100282.69;4964401;28;20189;-73
2022/12/23 02:28:17;;;;;;;27.30;15.97;;;;;;;5.19;100.00;100291.06;4963957;28;20216;-73
2022/12/23 02:30:51;;;;;;;31.17;16.67;;;;;;;5.21;100.00;100286.91;4964872;28;20220;-73
2022/12/23 02:33:34;;;;;;;28.03;16.00;;;;;;;5.22;100.00;100278.47;4965334;28;20201;-73
2022/12/23 02:36:09;;;;;;;30.97;16.03;;;;;;;5.25;100.00;100287.03;4965216;28;20258;-72
2022/12/23 02:38:47;;;;;;;31.30;17.40;;;;;;;5.24;100.00;100282.78;4967850;28;20238;-72
2022/12/23 02:41:52;;;;;;;30.33;17.33;;;;;;;5.24;100.00;100286.97;4966792;28;20200;-72
2022/12/23 02:44:28;;;;;;;40.60;19.73;;;;;;;5.25;100.00;100288.72;4967454;28;20247;-73
2022/12/23 02:46:59;;;;;;;37.57;18.63;;;;;;;5.28;100.00;100296.41;4965187;28;20207;-72
2022/12/23 02:49:31;;;;;;;39.33;20.30;;;;;;;5.30;100.00;100304.97;4967846;28;20219;-72
2022/12/23 02:52:00;;;;;;;46.60;20.57;;;;;;;5.31;100.00;100296.53;4965922;28;20217;-72
2022/12/23 02:54:32;;;;;;;40.07;20.77;;;;;;;5.32;100.00;100303.31;4951469;28;20817;-75
2022/12/23 02:57:02;;;;;;;42.63;19.07;;;;;;;5.31;100.00;100299.06;4961749;28;20658;-74
2022/12/23 02:59:44;;;;;;;41.60;20.13;;;;;;;5.32;100.00;100293.16;4964075;28;20255;-74
2022/12/23 03:02:09;;;;;;;46.43;20.63;;;;;;;5.33;100.00;100299.97;4965636;28;20204;-73
2022/12/23 03:04:39;;;;;;;36.27;18.20;;;;;;;5.32;100.00;100300.78;4965113;28;20275;-74
2022/12/23 03:07:05;;;;;;;42.83;20.47;;;;;;;5.32;100.00;100301.66;4964102;28;20196;-73
2022/12/23 03:09:55;;;;;;;41.37;18.03;;;;;;;5.33;100.00;100311.00;4964901;28;20216;-73
2022/12/23 03:12:32;;;;;;;41.67;19.03;;;;;;;5.33;100.00;100307.56;4965826;28;20683;-73
2022/12/23 03:15:23;;;;;;;40.07;18.70;;;;;;;5.32;100.00;100321.97;4963675;28;20250;-74
2022/12/23 03:18:16;;;;;;;41.20;19.70;;;;;;;5.32;100.00;100316.88;4970161;28;20220;-74
2022/12/23 03:21:03;;;;;;;44.37;21.23;;;;;;;5.35;100.00;100316.13;4960850;28;20201;-74
2022/12/23 03:23:34;;;;;;;45.13;21.23;;;;;;;5.37;100.00;100317.00;4963394;28;20215;-73
2022/12/23 03:26:07;;;;;;;43.97;20.53;;;;;;;5.36;100.00;100313.63;4967372;28;20208;-73
2022/12/23 03:28:43;;;;;;;45.03;22.03;;;;;;;5.38;100.00;100314.53;4966913;28;20224;-74
2022/12/23 03:31:16;;;;;;;42.10;20.83;;;;;;;5.39;100.00;100321.31;4964962;28;20228;-73
2022/12/23 03:33:45;;;;;;;36.47;19.23;;;;;;;5.38;100.00;100324.69;4968654;28;20196;-74
2022/12/23 03:36:33;;;;;;;39.33;19.37;;;;;;;5.37;100.00;100328.03;4952035;28;20662;-74
2022/12/23 03:39:03;;;;;;;34.23;18.03;;;;;;;5.36;100.00;100333.94;4962606;28;20243;-74
2022/12/23 03:41:43;;;;;;;34.77;18.20;;;;;;;5.37;100.00;100333.13;4969177;28;20196;-73
2022/12/23 03:44:14;;;;;;;35.60;20.00;;;;;;;5.38;100.00;100326.38;4963202;28;20204;-73
2022/12/23 03:46:46;;;;;;;34.00;18.33;;;;;;;5.38;100.00;100331.44;4968594;28;20192;-73
2022/12/23 03:49:18;;;;;;;31.23;17.80;;;;;;;5.34;100.00;100335.53;4967153;28;20208;-73
2022/12/23 03:51:52;;;;;;;32.10;17.70;;;;;;;5.37;100.00;100330.56;4967537;28;20306;-73
2022/12/23 03:54:28;;;;;;;30.40;16.77;;;;;;;5.40;100.00;100325.59;4953108;28;20203;-73
2022/12/23 03:57:00;;;;;;;37.37;19.43;;;;;;;5.42;100.00;100320.56;4968876;28;20536;-73
2022/12/23 03:59:39;;;;;;;40.27;20.30;;;;;;;5.39;100.00;100321.31;4963181;28;20965;-73
2022/12/23 04:02:17;;;;;;;34.60;18.57;;;;;;;5.39;100.00;100323.00;4970387;28;20192;-73
2022/12/23 04:05:23;;;;;;;31.37;17.20;;;;;;;5.41;100.00;100327.31;4968519;28;20545;-73
2022/12/23 04:08:15;;;;;;;24.57;15.57;;;;;;;5.40;100.00;100324.72;4959365;28;20239;-73
2022/12/23 04:10:40;;;;;;;29.87;17.07;;;;;;;5.40;100.00;100323.06;4964824;28;20215;-73
2022/12/23 04:13:07;;;;;;;29.97;17.07;;;;;;;5.40;100.00;100324.72;4948507;28;20243;-74
2022/12/23 04:15:32;;;;;;;27.57;16.10;;;;;;;5.39;100.00;100334.00;4970565;28;20193;-73
2022/12/23 04:17:58;;;;;;;27.07;15.03;;;;;;;5.38;100.00;100328.91;4965934;28;20755;-74
2022/12/23 04:20:24;;;;;;;27.43;16.13;;;;;;;5.41;100.00;100334.94;4965144;28;20638;-74
2022/12/23 04:22:49;;;;;;;28.67;16.97;;;;;;;5.40;100.00;100333.22;4964526;28;20271;-74
2022/12/23 04:25:16;;;;;;;33.17;16.63;;;;;;;5.39;100.00;100335.72;4966158;28;20220;-74
2022/12/23 04:27:41;;;;;;;54.10;15.00;;;;;;;5.38;100.00;100339.06;4966969;28;20628;-74
2022/12/23 04:30:09;;;;;;;22.30;13.50;;;;;;;5.37;100.00;100335.66;4966190;28;20196;-74
2022/12/23 04:32:35;;;;;;;26.57;14.30;;;;;;;5.38;100.00;100327.22;4965534;28;20223;-73
2022/12/23 04:35:01;;;;;;;26.30;15.20;;;;;;;5.36;100.00;100333.94;4966697;28;20197;-74
2022/12/23 04:37:26;;;;;;;27.63;15.77;;;;;;;5.38;100.00;100337.38;4963668;28;20200;-73
2022/12/23 04:39:52;;;;;;;27.03;15.77;;;;;;;5.36;100.00;100345.75;4950227;28;20204;-74
2022/12/23 04:42:17;;;;;;;25.13;14.70;;;;;;;5.37;100.00;100352.53;4966668;28;20181;-71
2022/12/23 04:44:42;;;;;;;26.47;15.57;;;;;;;5.38;100.00;100356.84;4967277;28;20649;-72
2022/12/23 04:47:08;;;;;;;25.77;15.03;;;;;;;5.39;100.00;100359.41;4963325;28;20290;-73
2022/12/23 04:49:33;;;;;;;26.60;14.40;;;;;;;5.38;100.00;100356.84;4961568;28;20221;-74
2022/12/23 04:51:59;;;;;;;25.93;14.07;;;;;;;5.40;100.00;100370.41;4967819;28;20300;-72
2022/12/23 04:54:24;;;;;;;34.37;14.93;;;;;;;5.37;100.00;100362.69;4958092;28;20289;-72
2022/12/23 04:56:50;;;;;;;44.27;14.93;;;;;;;5.37;100.00;100358.50;4960903;28;20196;-73
2022/12/23 04:59:15;;;;;;;36.50;14.40;;;;;;;5.36;100.00;100358.44;4964487;28;20232;-73
2022/12/23 05:01:41;;;;;;;50.10;15.17;;;;;;;5.35;100.00;100357.56;4966336;28;20200;-73
2022/12/23 05:04:10;;;;;;;41.50;16.67;;;;;;;5.36;100.00;100350.81;4965678;28;20204;-73
2022/12/23 05:06:36;;;;;;;48.60;14.87;;;;;;;5.33;100.00;100348.19;4966030;28;20199;-72
2022/12/23 05:09:02;;;;;;;41.67;15.67;;;;;;;5.32;100.00;100349.88;4965334;28;20216;-73
2022/12/23 05:11:28;;;;;;;27.00;14.47;;;;;;;5.35;100.00;100354.19;4951488;28;20224;-72
2022/12/23 05:13:53;;;;;;;24.67;14.17;;;;;;;5.34;100.00;100355.00;4964740;28;20316;-72
2022/12/23 05:16:19;;;;;;;40.83;14.70;;;;;;;5.34;100.00;100357.53;4962829;28;20204;-73
2022/12/23 05:18:44;;;;;;;36.50;15.57;;;;;;;5.34;100.00;100362.63;4968157;28;20266;-73
2022/12/23 05:21:10;;;;;;;29.30;16.77;;;;;;;5.32;100.00;100362.56;4964596;28;20211;-72
2022/12/23 05:23:35;;;;;;;37.20;16.80;;;;;;;5.34;100.00;100365.16;4966372;28;20199;-73
2022/12/23 05:26:01;;;;;;;31.90;17.53;;;;;;;5.32;100.00;100372.72;4962476;28;20283;-73
2022/12/23 05:28:26;;;;;;;42.10;18.40;;;;;;;5.33;100.00;100371.91;4960972;28;21371;-73
2022/12/23 05:31:02;;;;;;;44.77;18.53;;;;;;;5.33;100.00;100371.91;4957954;28;20244;-74
2022/12/23 05:33:28;;;;;;;34.10;18.10;;;;;;;5.34;100.00;100372.78;4960752;28;20231;-74
2022/12/23 05:35:54;;;;;;;35.73;18.17;;;;;;;5.34;100.00;100367.69;4969522;28;20275;-75
2022/12/23 05:38:19;;;;;;;28.57;16.60;;;;;;;5.32;100.00;100370.19;4967602;28;20656;-74
2022/12/23 05:40:45;;;;;;;35.90;18.90;;;;;;;5.32;100.00;100359.16;4965988;28;20254;-74
2022/12/23 05:43:10;;;;;;;36.27;18.33;;;;;;;5.32;100.00;100364.22;4950508;28;20232;-73
2022/12/23 05:45:36;;;;;;;59.43;19.77;;;;;;;5.32;100.00;100366.78;4965319;28;20603;-73
2022/12/23 05:48:02;;;;;;;33.60;17.63;;;;;;;5.32;100.00;100370.19;4969237;28;20211;-73
2022/12/23 05:50:28;;;;;;;36.07;18.17;;;;;;;5.29;100.00;100372.59;4965007;28;20289;-72
2022/12/23 05:52:56;;;;;;;65.07;20.17;;;;;;;5.27;100.00;100379.31;4969203;28;20299;-73
2022/12/23 05:55:23;;;;;;;41.77;20.00;;;;;;;5.27;100.00;100381.88;4968187;28;20227;-72
2022/12/23 05:57:49;;;;;;;39.77;18.80;;;;;;;5.24;100.00;100389.38;4954587;28;20212;-73
2022/12/23 06:00:15;;;;;;;35.00;17.67;;;;;;;5.26;100.00;100397.91;4971319;28;20258;-75
2022/12/23 06:02:40;;;;;;;35.47;18.00;;;;;;;5.27;100.00;100407.25;4971853;28;20195;-74
2022/12/23 06:05:06;;;;;;;36.33;18.80;;;;;;;5.26;100.00;100413.13;4967645;28;20299;-74
2022/12/23 06:07:31;;;;;;;31.57;17.63;;;;;;;5.27;100.00;100417.41;4970925;28;20184;-74
2022/12/23 06:09:57;;;;;;;42.43;18.33;;;;;;;5.24;100.00;100409.66;4969252;28;20330;-74
2022/12/23 06:12:22;;;;;;;33.07;16.90;;;;;;;5.26;100.00;100419.88;4966461;28;20267;-74
2022/12/23 06:14:48;;;;;;;36.83;18.73;;;;;;;5.24;100.00;100424.88;4964802;28;20248;-73
2022/12/23 06:17:13;;;;;;;35.37;19.33;;;;;;;5.27;100.00;100435.16;4966779;28;20704;-74
2022/12/23 06:19:39;;;;;;;32.93;18.13;;;;;;;5.24;100.00;100432.50;4965682;28;20223;-74
2022/12/23 06:22:04;;;;;;;33.40;18.03;;;;;;;5.25;100.00;100434.22;4969866;28;20180;-74
2022/12/23 06:24:30;;;;;;;30.43;17.40;;;;;;;5.27;100.00;100427.53;4970517;28;20189;-73
2022/12/23 06:26:55;;;;;;;34.10;18.00;;;;;;;5.26;100.00;100428.38;4973642;28;20235;-74
2022/12/23 06:29:20;;;;;;;34.00;17.87;;;;;;;5.29;100.00;100428.44;4965359;28;20580;-74
2022/12/23 06:31:46;;;;;;;30.53;17.40;;;;;;;5.27;100.00;100417.41;4969551;28;20266;-74
2022/12/23 06:34:12;;;;;;;34.50;18.40;;;;;;;5.25;100.00;100416.47;4966389;28;20192;-74
2022/12/23 06:36:37;;;;;;;35.80;19.73;;;;;;;5.26;100.00;100417.34;4969707;28;20201;-74
2022/12/23 06:39:03;;;;;;;41.60;20.07;;;;;;;5.25;100.00;100413.91;4971040;28;20204;-74
2022/12/23 06:41:28;;;;;;;42.67;20.33;;;;;;;5.26;100.00;100428.38;4964008;28;20193;-74
2022/12/23 06:43:54;;;;;;;38.80;20.17;;;;;;;5.22;100.00;100416.38;4968418;28;20193;-74
2022/12/23 06:46:19;;;;;;;37.13;18.47;;;;;;;5.17;100.00;100422.97;4968213;28;20231;-73
2022/12/23 06:48:45;;;;;;;36.73;17.67;;;;;;;5.14;100.00;100434.69;4969801;28;20224;-73
2022/12/23 06:51:11;;;;;;;34.93;18.27;;;;;;;5.13;100.00;100433.84;4969204;28;20268;-73
2022/12/23 06:53:37;;;;;;;41.57;20.20;;;;;;;5.16;100.00;100433.06;4935505;29;20201;-73
2022/12/23 06:56:03;;;;;;;31.97;16.80;;;;;;;5.15;100.00;100426.28;4970659;28;20200;-73
2022/12/23 06:58:29;;;;;;;37.10;18.80;;;;;;;5.17;100.00;100429.72;4969700;28;20216;-73
2022/12/23 07:00:55;;;;;;;33.80;16.37;;;;;;;5.18;100.00;100427.22;4951103;28;20189;-72
2022/12/23 07:03:21;;;;;;;31.57;16.30;;;;;;;5.18;100.00;100423.81;4964051;28;20203;-73
2022/12/23 07:05:47;;;;;;;30.70;15.33;;;;;;;5.16;100.00;100426.31;4952484;28;20647;-74
2022/12/23 07:08:13;;;;;;;30.53;15.93;;;;;;;5.16;100.00;100431.38;4966306;28;20272;-74
2022/12/23 07:10:39;;;;;;;32.37;16.43;;;;;;;5.15;100.00;100431.34;4947722;28;20197;-74
2022/12/23 07:13:04;;;;;;;37.70;18.30;;;;;;;5.14;100.00;100424.53;4961717;28;20228;-73
2022/12/23 07:15:29;;;;;;;35.67;17.97;;;;;;;5.16;100.00;100440.69;4964946;28;20689;-74
2022/12/23 07:17:55;;;;;;;34.63;18.80;;;;;;;5.18;100.00;100439.91;4971967;28;20662;-73
2022/12/23 07:20:20;;;;;;;42.47;19.10;;;;;;;5.17;100.00;100445.81;4964434;28;20764;-74
2022/12/23 07:22:46;;;;;;;43.07;19.30;;;;;;;5.16;100.00;100441.53;4964975;28;20292;-75
2022/12/23 07:25:12;;;;;;;44.90;20.77;;;;;;;5.19;100.00;100456.88;4945406;28;20208;-73
2022/12/23 07:27:37;;;;;;;43.40;21.83;;;;;;;5.23;100.00;100460.38;4968164;28;20243;-73
2022/12/23 07:30:03;;;;;;;49.50;21.37;;;;;;;5.23;100.00;100456.16;4964878;28;20228;-74
2022/12/23 07:32:29;;;;;;;55.30;23.13;;;;;;;5.24;100.00;100460.41;4949705;28;20223;-74
2022/12/23 07:34:54;;;;;;;48.13;22.53;;;;;;;5.25;100.00;100466.38;4968157;28;20659;-74
2022/12/23 07:37:20;;;;;;;49.27;21.37;;;;;;;5.28;100.00;100474.94;4967342;28;20621;-74
2022/12/23 07:39:45;;;;;;;52.83;21.80;;;;;;;5.30;100.00;100465.69;4967888;28;20204;-73
2022/12/23 07:42:11;;;;;;;51.60;22.60;;;;;;;5.33;100.00;100473.44;4968355;28;20230;-73
2022/12/23 07:44:37;;;;;;;55.40;23.60;;;;;;;5.37;100.00;100498.09;4969137;28;20215;-73
2022/12/23 07:47:02;;;;;;;52.73;23.67;;;;;;;5.39;100.00;100511.69;4966392;28;20658;-74
2022/12/23 07:49:28;;;;;;;54.80;24.33;;;;;;;5.42;100.00;100514.34;4968300;28;20707;-74
2022/12/23 07:51:53;;;;;;;61.30;25.53;;;;;;;5.45;100.00;100511.94;4969422;28;20208;-73
2022/12/23 07:54:18;;;;;;;64.33;25.30;;;;;;;5.45;100.00;100504.31;4963235;28;20208;-73
2022/12/23 07:56:44;;;;;;;76.03;25.87;;;;;;;5.49;100.00;100503.59;4943804;28;20244;-73
2022/12/23 07:59:09;;;;;;;79.10;26.53;;;;;;;5.52;100.00;100501.16;4963692;28;20228;-73
2022/12/23 08:01:35;;;;;;;86.53;28.70;;;;;;;5.54;100.00;100509.69;4969252;28;20227;-73
2022/12/23 08:04:00;;;;;;;92.00;26.87;;;;;;;5.58;100.00;100513.19;4964042;28;20216;-74
2022/12/23 08:06:26;;;;;;;81.87;28.50;;;;;;;5.64;100.00;100508.31;4947084;28;20197;-73
2022/12/23 08:08:51;;;;;;;84.20;29.40;;;;;;;5.60;100.00;100509.91;4969135;28;20278;-73
2022/12/23 08:11:17;;;;;;;84.13;27.50;;;;;;;5.61;100.00;100520.94;4950075;28;20224;-72
2022/12/23 08:13:44;;;;;;;78.67;27.67;;;;;;;5.61;100.00;100515.84;4967081;28;20197;-72
2022/12/23 08:16:10;;;;;;;78.73;26.83;;;;;;;5.62;100.00;100512.50;4969242;28;20204;-72
2022/12/23 08:18:38;;;;;;;86.77;27.20;;;;;;;5.63;100.00;100510.00;4964494;28;20232;-74
2022/12/23 08:21:07;;;;;;;79.77;26.13;;;;;;;5.66;100.00;100510.09;4951036;28;20220;-74
2022/12/23 08:23:33;;;;;;;71.97;25.40;;;;;;;5.69;100.00;100516.94;4968749;28;20196;-74
2022/12/23 08:26:05;;;;;;;87.07;27.43;;;;;;;5.70;100.00;100526.28;4951848;28;20196;-74
2022/12/23 08:28:31;;;;;;;87.50;27.90;;;;;;;5.73;100.00;100527.28;4965561;28;20224;-73
2022/12/23 08:31:10;;;;;;;81.47;26.43;;;;;;;5.75;100.00;100533.25;4967590;28;20303;-72
2022/12/23 08:33:37;;;;;;;76.77;25.80;;;;;;;5.75;100.00;100535.78;4968402;28;20602;-72
2022/12/23 08:36:05;;;;;;;82.33;27.20;;;;;;;5.78;100.00;100543.53;4967389;28;20200;-72
2022/12/23 08:38:31;;;;;;;78.97;26.90;;;;;;;5.81;100.00;100545.34;4967397;28;20225;-72
2022/12/23 08:40:57;;;;;;;79.57;27.50;;;;;;;5.83;100.00;100552.19;4963738;28;20194;-72
2022/12/23 08:43:23;;;;;;;87.23;27.10;;;;;;;5.86;100.00;100551.44;4964294;28;20196;-73
2022/12/23 08:45:48;;;;;;;92.80;27.43;;;;;;;5.90;100.00;100551.56;4952697;28;20196;-74
2022/12/23 08:48:14;;;;;;;81.67;27.13;;;;;;;5.94;100.00;100555.09;4954250;28;20216;-73
2022/12/23 08:50:41;;;;;;;94.93;26.03;;;;;;;5.99;100.00;100556.94;4964287;28;20219;-73
2022/12/23 08:53:07;;;;;;;128.80;29.17;;;;;;;5.99;100.00;100564.56;4965003;28;20239;-73
2022/12/23 08:55:43;;;;;;;174.03;29.80;;;;;;;5.96;100.00;100563.63;4960738;28;20228;-72
2022/12/23 08:58:09;;;;;;;189.23;29.77;;;;;;;5.96;100.00;100567.03;4966153;28;20217;-73
2022/12/23 09:00:36;;;;;;;153.70;29.47;;;;;;;5.94;100.00;100562.72;4964294;28;20202;-73
2022/12/23 09:03:02;;;;;;;144.67;29.70;;;;;;;5.90;100.00;100564.28;4966726;28;20285;-72
2022/12/23 09:05:27;;;;;;;115.70;28.93;;;;;;;5.91;100.00;100563.47;4965372;28;20196;-72
2022/12/23 09:07:53;;;;;;;149.33;31.20;;;;;;;5.89;100.00;100565.09;4965371;28;20568;-73
2022/12/23 09:10:19;;;;;;;128.53;30.50;;;;;;;5.93;100.00;100569.47;4965671;28;20197;-72
2022/12/23 09:12:45;;;;;;;99.20;29.97;;;;;;;5.95;100.00;100577.16;4962542;28;20212;-73
2022/12/23 09:15:10;;;;;;;106.30;28.70;;;;;;;5.98;100.00;100578.09;4967366;28;20298;-73
2022/12/23 09:17:36;;;;;;;101.27;27.13;;;;;;;5.98;100.00;100585.72;4968399;28;20754;-73
2022/12/23 09:20:02;;;;;;;96.03;27.87;;;;;;;5.99;100.00;100589.97;4961500;28;20189;-73
2022/12/23 09:22:27;;;;;;;107.70;28.70;;;;;;;5.97;100.00;100589.09;4962277;28;20223;-73
2022/12/23 09:24:54;;;;;;;91.73;27.17;;;;;;;6.00;100.00;100591.75;4961259;28;20236;-73
2022/12/23 09:27:20;;;;;;;93.60;27.43;;;;;;;5.97;100.00;100588.22;4948143;28;20282;-74
2022/12/23 09:29:45;;;;;;;89.60;25.63;;;;;;;5.98;100.00;100580.63;4961745;28;20327;-73
2022/12/23 09:32:10;;;;;;;88.67;26.27;;;;;;;6.01;100.00;100575.66;4964459;28;20295;-73
2022/12/23 09:34:36;;;;;;;86.70;25.00;;;;;;;6.02;100.00;100572.31;4963249;28;20194;-73
2022/12/23 09:37:02;;;;;;;93.17;26.20;;;;;;;6.03;100.00;100573.19;4959225;28;20203;-73
2022/12/23 09:39:27;;;;;;;85.57;25.60;;;;;;;6.06;100.00;100584.31;4946643;28;20286;-73
2022/12/23 09:42:15;;;;;;;80.47;24.13;;;;;;;6.07;100.00;100586.03;4963315;28;20203;-73
2022/12/23 09:44:46;;;;;;;81.23;25.23;;;;;;;6.10;100.00;100588.69;4968143;28;20222;-74
2022/12/23 09:47:18;;;;;;;74.77;24.70;;;;;;;6.13;100.00;100586.22;4965839;28;20656;-73
2022/12/23 09:49:50;;;;;;;86.10;24.97;;;;;;;6.18;100.00;100587.22;4965444;28;20284;-72
2022/12/23 09:52:23;;;;;;;71.93;24.93;;;;;;;6.21;100.00;100587.34;4961950;28;20241;-72
2022/12/23 09:54:52;;;;;;;79.73;25.93;;;;;;;6.28;100.00;100603.66;4960350;28;20201;-71
2022/12/23 09:57:21;;;;;;;66.73;22.47;;;;;;;6.29;100.00;100597.75;4947967;28;20224;-72
2022/12/23 10:00:09;;;;;;;70.23;23.53;;;;;;;6.34;100.00;100596.22;4967412;28;20204;-72
2022/12/23 10:03:00;;;;;;;58.83;21.37;;;;;;;6.34;100.00;100586.91;4966204;28;20207;-72
2022/12/23 10:05:43;;;;;;;64.97;22.90;;;;;;;6.40;100.00;100587.09;4964003;28;20224;-71
2022/12/23 10:08:33;;;;;;;68.90;22.57;;;;;;;6.39;100.00;100587.03;4961863;28;20243;-71
2022/12/23 10:11:03;;;;;;;63.40;20.10;;;;;;;6.40;100.00;100578.63;4965128;28;20686;-73
2022/12/23 10:13:36;;;;;;;59.63;22.17;;;;;;;6.39;100.00;100574.34;4961449;28;20623;-73
2022/12/23 10:16:11;;;;;;;62.10;22.37;;;;;;;6.40;100.00;100581.19;4964015;28;20205;-74
2022/12/23 10:18:58;;;;;;;65.30;23.27;;;;;;;6.42;100.00;100577.88;4963823;28;20220;-73
2022/12/23 10:21:47;;;;;;;63.13;23.20;;;;;;;6.44;100.00;100575.38;4965185;28;20196;-73
2022/12/23 10:24:27;;;;;;;68.00;22.57;;;;;;;6.45;100.00;100584.72;4958078;28;20201;-72
2022/12/23 10:26:55;;;;;;;62.47;21.73;;;;;;;6.47;100.00;100573.78;4961576;28;20820;-74
2022/12/23 10:29:23;;;;;;;60.33;22.73;;;;;;;6.49;100.00;100577.22;4929209;28;20324;-72
2022/12/23 10:31:58;;;;;;;57.07;21.97;;;;;;;6.54;100.00;100585.84;4965346;28;20752;-73
2022/12/23 10:34:50;;;;;;;60.97;22.33;;;;;;;6.58;100.00;100592.75;4963418;28;20354;-73
2022/12/23 10:37:18;;;;;;;61.10;22.67;;;;;;;6.57;100.00;100588.50;4966279;28;20690;-71
2022/12/23 10:39:49;;;;;;;64.30;22.57;;;;;;;6.54;100.00;100583.31;4968802;28;20215;-71
2022/12/23 10:42:25;;;;;;;65.97;23.10;;;;;;;6.57;100.00;100574.91;4966094;28;20247;-71
2022/12/23 10:44:56;;;;;;;57.70;22.40;;;;;;;6.60;100.00;100577.56;4964677;28;20328;-72
2022/12/23 10:47:28;;;;;;;55.63;20.63;;;;;;;6.56;100.00;100575.72;4966297;28;20200;-71
2022/12/23 10:50:31;;;;;;;54.93;22.20;;;;;;;6.59;100.00;100586.00;4963946;28;20243;-71
2022/12/23 10:53:00;;;;;;;58.53;22.00;;;;;;;6.65;100.00;100583.66;4967260;28;20321;-71
2022/12/23 10:55:32;;;;;;;53.97;22.10;;;;;;;6.69;100.00;100580.38;4966856;28;20212;-71
2022/12/23 10:58:13;;;;;;;58.50;21.77;;;;;;;6.69;100.00;100586.34;4967287;28;20606;-72
2022/12/23 11:00:42;;;;;;;48.27;20.97;;;;;;;6.68;100.00;100576.13;4965002;28;20244;-73
2022/12/23 11:03:26;;;;;;;52.87;22.10;;;;;;;6.67;100.00;100582.88;4971695;28;20209;-72
2022/12/23 11:05:52;;;;;;;49.53;18.93;;;;;;;6.69;100.00;100577.84;4962981;28;20228;-72
2022/12/23 11:08:22;;;;;;;47.43;19.70;;;;;;;6.68;100.00;100573.56;4964857;28;20306;-72
2022/12/23 11:10:48;;;;;;;47.30;18.60;;;;;;;6.67;100.00;100580.34;4964562;28;20569;-73
2022/12/23 11:13:34;;;;;;;50.53;20.33;;;;;;;6.64;100.00;100592.94;4963570;28;20196;-72
2022/12/23 11:16:22;;;;;;;45.57;18.87;;;;;;;6.61;100.00;100587.78;4958967;28;20599;-72
2022/12/23 11:19:05;;;;;;;51.17;20.57;;;;;;;6.65;100.00;100594.69;4961303;28;20217;-72
2022/12/23 11:21:32;;;;;;;47.03;20.17;;;;;;;6.68;100.00;100592.22;4945846;28;20208;-72
2022/12/23 11:24:18;;;;;;;48.27;20.53;;;;;;;6.66;100.00;100601.50;4947821;28;20203;-71
2022/12/23 11:26:46;;;;;;;48.57;20.20;;;;;;;6.71;100.00;100596.53;4961299;28;20239;-71
2022/12/23 11:29:37;;;;;;;48.50;20.13;;;;;;;6.76;100.00;100590.78;4960982;28;20240;-71
2022/12/23 11:32:31;;;;;;;45.53;19.07;;;;;;;6.79;100.00;100587.47;4956375;28;20282;-71
2022/12/23 11:34:56;;;;;;;48.37;21.13;;;;;;;6.87;100.00;100575.84;4962253;28;20232;-71
2022/12/23 11:37:28;;;;;;;51.10;20.97;;;;;;;7.05;100.00;100564.50;4965757;28;20193;-71
2022/12/23 11:39:54;;;;;;;49.17;20.80;;;;;;;7.09;100.00;100562.94;4962725;28;20196;-72
2022/12/23 11:42:27;;;;;;;45.27;20.40;;;;;;;6.93;100.00;100571.81;4957918;28;20585;-73
2022/12/23 11:44:54;;;;;;;43.63;19.80;;;;;;;6.87;100.00;100568.22;4963126;28;20200;-73
2022/12/23 11:47:24;;;;;;;40.83;19.43;;;;;;;6.91;100.00;100564.94;4966401;28;20219;-71
2022/12/23 11:50:13;;;;;;;43.73;20.47;;;;;;;7.02;100.00;100553.38;4964671;28;20197;-73